createdAt,value
2019-05-21T00:02:12.610Z,25.97
2019-05-21T00:04:42.628Z,26.90
2019-05-21T00:07:12.634Z,26.50
2019-05-21T00:09:42.667Z,25.83
2019-05-21T00:12:14.184Z,26.83
2019-05-21T00:14:44.212Z,26.17
2019-05-21T00:17:14.215Z,28.40
2019-05-21T00:19:44.243Z,27.73
2019-05-21T00:22:14.239Z,26.90
2019-05-21T00:24:44.383Z,27.53
2019-05-21T00:27:14.500Z,29.03
2019-05-21T00:30:20.927Z,27.40
2019-05-21T00:33:27.592Z,26.37
2019-05-21T00:36:34.660Z,27.73
2019-05-21T00:39:41.112Z,26.60
2019-05-21T00:42:09.961Z,27.77
2019-05-21T00:44:43.847Z,27.80
2019-05-21T00:47:16.561Z,29.00
2019-05-21T00:49:46.589Z,30.33
2019-05-21T00:52:16.581Z,26.67
2019-05-21T00:54:46.612Z,26.23
2019-05-21T00:57:16.615Z,26.03
2019-05-21T00:59:47.282Z,30.73
2019-05-21T01:02:17.280Z,29.93
2019-05-21T01:05:00.362Z,27.43
2019-05-21T01:07:22.155Z,27.93
2019-05-21T01:09:52.657Z,29.77
2019-05-21T01:12:22.683Z,28.07
2019-05-21T01:14:52.756Z,30.13
2019-05-21T01:17:22.799Z,29.23
2019-05-21T01:19:52.884Z,31.93
2019-05-21T01:22:23.761Z,31.43
2019-05-21T01:24:54.875Z,28.13
2019-05-21T01:27:24.880Z,27.63
2019-05-21T01:29:54.904Z,26.60
2019-05-21T01:32:24.990Z,28.20
2019-05-21T01:34:54.995Z,29.20
2019-05-21T01:37:25.022Z,28.87
2019-05-21T01:39:55.013Z,27.10
2019-05-21T01:42:25.037Z,27.23
2019-05-21T01:44:55.040Z,26.67
2019-05-21T01:47:25.566Z,26.03
2019-05-21T01:49:55.585Z,27.87
2019-05-21T01:52:25.599Z,26.67
2019-05-21T01:54:55.601Z,26.03
2019-05-21T01:57:25.616Z,29.17
2019-05-21T01:59:55.620Z,28.00
2019-05-21T02:02:25.657Z,29.90
2019-05-21T02:04:55.687Z,28.67
2019-05-21T02:07:25.676Z,32.33
2019-05-21T02:09:58.729Z,26.60
2019-05-21T02:12:28.859Z,32.00
2019-05-21T02:14:59.201Z,30.23
2019-05-21T02:17:29.842Z,28.17
2019-05-21T02:19:59.861Z,30.10
2019-05-21T02:22:29.873Z,28.67
2019-05-21T02:24:59.893Z,27.83
2019-05-21T02:27:29.894Z,30.63
2019-05-21T02:29:59.926Z,29.27
2019-05-21T02:32:31.556Z,26.57
2019-05-21T02:35:01.589Z,27.90
2019-05-21T02:37:31.586Z,27.30
2019-05-21T02:40:01.589Z,32.47
2019-05-21T02:42:31.606Z,29.17
2019-05-21T02:45:01.775Z,28.57
2019-05-21T02:47:31.845Z,30.27
2019-05-21T02:50:03.480Z,28.10
2019-05-21T02:52:35.017Z,28.40
2019-05-21T02:55:06.826Z,31.40
2019-05-21T02:57:41.306Z,27.93
2019-05-21T03:00:21.351Z,29.37
2019-05-21T03:02:51.509Z,28.90
2019-05-21T03:05:21.534Z,31.20
2019-05-21T03:07:51.969Z,31.27
2019-05-21T03:10:23.080Z,28.17
2019-05-21T03:12:53.170Z,28.60
2019-05-21T03:15:23.335Z,29.37
2019-05-21T03:17:54.397Z,31.10
2019-05-21T03:20:24.494Z,29.97
2019-05-21T03:22:54.572Z,29.17
2019-05-21T03:25:27.427Z,29.83
2019-05-21T03:27:57.428Z,33.37
2019-05-21T03:30:27.443Z,28.07
2019-05-21T03:32:57.528Z,34.37
2019-05-21T03:35:27.539Z,34.03
2019-05-21T03:37:57.525Z,35.30
2019-05-21T03:40:27.562Z,35.63
2019-05-21T03:42:57.638Z,32.53
2019-05-21T03:45:27.643Z,33.07
2019-05-21T03:47:58.853Z,35.57
2019-05-21T03:50:28.954Z,34.78
2019-05-21T03:53:00.557Z,36.20
2019-05-21T03:55:32.549Z,35.10
2019-05-21T03:58:02.546Z,38.03
2019-05-21T04:00:32.581Z,38.57
2019-05-21T04:03:02.606Z,37.43
2019-05-21T04:05:32.631Z,35.77
2019-05-21T04:08:02.716Z,38.03
2019-05-21T04:10:32.721Z,37.57
2019-05-21T04:13:06.227Z,31.30
2019-05-21T04:15:39.880Z,39.90
2019-05-21T04:18:11.632Z,38.63
2019-05-21T04:20:41.664Z,40.93
2019-05-21T04:23:12.911Z,39.10
2019-05-21T04:25:43.073Z,33.93
2019-05-21T04:28:13.240Z,34.33
2019-05-21T04:30:45.974Z,36.07
2019-05-21T04:33:15.973Z,43.00
2019-05-21T04:35:47.534Z,41.50
2019-05-21T04:38:20.821Z,33.63
2019-05-21T04:40:51.822Z,31.30
2019-05-21T04:43:21.902Z,32.47
2019-05-21T04:45:51.922Z,25.80
2019-05-21T04:48:21.955Z,21.93
2019-05-21T04:50:51.968Z,20.83
2019-05-21T04:53:22.000Z,19.43
2019-05-21T04:55:52.011Z,19.80
2019-05-21T04:58:22.041Z,19.27
2019-05-21T05:00:52.042Z,18.57
2019-05-21T05:03:22.151Z,19.03
2019-05-21T05:05:52.147Z,17.20
2019-05-21T05:08:22.270Z,19.03
2019-05-21T05:10:52.297Z,20.00
2019-05-21T05:13:22.402Z,18.60
2019-05-21T05:15:52.413Z,19.23
2019-05-21T05:18:22.513Z,19.23
2019-05-21T05:20:52.524Z,19.23
2019-05-21T05:23:25.672Z,18.20
2019-05-21T05:25:55.747Z,19.00
2019-05-21T05:28:25.777Z,18.47
2019-05-21T05:30:57.396Z,18.77
2019-05-21T05:33:27.434Z,18.90
2019-05-21T05:35:57.466Z,17.13
2019-05-21T05:38:27.541Z,16.77
2019-05-21T05:40:57.618Z,17.13
2019-05-21T05:43:28.652Z,17.27
2019-05-21T05:46:00.603Z,15.60
2019-05-21T05:48:32.410Z,16.83
2019-05-21T05:51:08.959Z,17.00
2019-05-21T05:53:57.381Z,16.00
2019-05-21T05:56:29.461Z,16.60
2019-05-21T05:58:59.513Z,19.10
2019-05-21T06:01:31.407Z,17.80
2019-05-21T06:04:03.387Z,17.63
2019-05-21T06:06:33.453Z,18.23
2019-05-21T06:09:05.450Z,18.23
2019-05-21T06:11:35.590Z,16.77
2019-05-21T06:14:05.791Z,19.93
2019-05-21T06:16:35.886Z,18.40
2019-05-21T06:19:06.052Z,19.43
2019-05-21T06:21:36.087Z,18.90
2019-05-21T06:24:06.273Z,18.70
2019-05-21T06:26:36.298Z,18.43
2019-05-21T06:29:06.378Z,20.80
2019-05-21T06:31:36.534Z,20.10
2019-05-21T06:34:06.626Z,25.33
2019-05-21T06:36:36.725Z,22.60
2019-05-21T06:39:07.774Z,26.87
2019-05-21T06:41:37.799Z,26.40
2019-05-21T06:44:07.873Z,24.13
2019-05-21T06:46:38.577Z,30.50
2019-05-21T06:49:08.749Z,25.37
2019-05-21T06:51:38.879Z,26.73
2019-05-21T06:54:08.949Z,29.17
2019-05-21T06:56:38.971Z,29.33
2019-05-21T06:59:09.005Z,26.90
2019-05-21T07:01:39.009Z,26.27
2019-05-21T07:04:09.240Z,28.90
2019-05-21T07:06:39.231Z,28.33
2019-05-21T07:09:11.806Z,27.50
2019-05-21T07:11:41.825Z,32.40
2019-05-21T07:14:11.919Z,25.97
2019-05-21T07:16:41.955Z,29.27
2019-05-21T07:19:11.980Z,24.47
2019-05-21T07:21:42.031Z,22.80
2019-05-21T07:24:12.177Z,26.93
2019-05-21T07:26:42.308Z,24.47
2019-05-21T07:29:13.371Z,24.53
2019-05-21T07:31:43.531Z,22.83
2019-05-21T07:34:13.607Z,24.77
2019-05-21T07:36:43.643Z,21.53
2019-05-21T07:39:13.737Z,24.43
2019-05-21T07:41:43.751Z,24.90
2019-05-21T07:44:13.814Z,22.77
2019-05-21T07:46:43.857Z,24.13
2019-05-21T07:49:13.936Z,24.20
2019-05-21T07:51:43.981Z,26.50
2019-05-21T07:54:13.983Z,22.97
2019-05-21T07:56:44.199Z,25.93
2019-05-21T07:59:14.274Z,25.43
2019-05-21T08:01:44.319Z,26.83
2019-05-21T08:04:14.397Z,25.03
2019-05-21T08:06:44.668Z,26.73
2019-05-21T08:09:15.207Z,26.67
2019-05-21T08:11:47.099Z,29.92
2019-05-21T08:14:17.031Z,24.93
2019-05-21T08:16:47.036Z,28.60
2019-05-21T08:19:17.074Z,24.93
2019-05-21T08:21:48.641Z,27.67
2019-05-21T08:24:18.734Z,26.93
2019-05-21T08:26:48.767Z,24.92
2019-05-21T08:29:18.808Z,25.08
2019-05-21T08:31:48.967Z,26.30
2019-05-21T08:34:19.019Z,22.93
2019-05-21T08:36:49.194Z,26.87
2019-05-21T08:39:28.197Z,26.23
2019-05-21T08:41:52.608Z,23.20
2019-05-21T08:44:22.636Z,22.63
2019-05-21T08:46:52.705Z,26.90
2019-05-21T08:49:22.747Z,25.47
2019-05-21T08:51:52.775Z,29.27
2019-05-21T08:54:39.769Z,20.43
2019-05-21T08:57:09.927Z,21.40
2019-05-21T08:59:40.097Z,23.57
2019-05-21T09:02:10.442Z,21.50
2019-05-21T09:04:46.502Z,23.32
2019-05-21T09:07:12.461Z,23.13
2019-05-21T09:09:50.154Z,25.47
2019-05-21T09:12:14.516Z,20.40
2019-05-21T09:14:44.614Z,24.07
2019-05-21T09:17:14.665Z,22.25
2019-05-21T09:19:44.739Z,20.33
2019-05-21T09:22:14.843Z,17.13
2019-05-21T09:24:44.850Z,18.55
2019-05-21T09:27:15.039Z,18.60
2019-05-21T09:29:45.057Z,18.27
2019-05-21T09:32:15.120Z,18.15
2019-05-21T09:34:49.189Z,18.77
2019-05-21T09:37:19.681Z,16.63
2019-05-21T09:39:48.800Z,18.10
2019-05-21T09:42:19.034Z,17.13
2019-05-21T09:44:49.098Z,16.73
2019-05-21T09:47:19.146Z,16.57
2019-05-21T09:49:49.151Z,16.52
2019-05-21T09:52:19.181Z,14.97
2019-05-21T09:54:49.193Z,14.17
2019-05-21T09:57:20.877Z,14.60
2019-05-21T09:59:55.196Z,15.65
2019-05-21T10:02:26.870Z,15.65
2019-05-21T10:04:56.960Z,15.23
2019-05-21T10:07:39.315Z,14.38
2019-05-21T10:09:58.778Z,12.82
2019-05-21T10:12:28.804Z,13.35
2019-05-21T10:14:58.841Z,14.25
2019-05-21T10:17:28.879Z,12.30
2019-05-21T10:19:59.157Z,11.15
2019-05-21T10:22:29.258Z,13.17
2019-05-21T10:24:59.282Z,12.40
2019-05-21T10:27:29.304Z,12.97
2019-05-21T10:29:59.352Z,11.97
2019-05-21T10:32:29.416Z,11.40
2019-05-21T10:34:59.516Z,10.27
2019-05-21T10:37:30.051Z,9.97
2019-05-21T10:40:00.138Z,8.47
2019-05-21T10:42:30.194Z,7.80
2019-05-21T10:45:00.203Z,8.00
2019-05-21T10:47:30.200Z,8.37
2019-05-21T10:50:00.204Z,8.70
2019-05-21T10:52:30.294Z,8.47
2019-05-21T10:55:00.296Z,9.43
2019-05-21T10:57:30.486Z,8.63
2019-05-21T11:00:00.458Z,9.43
2019-05-21T11:02:32.121Z,10.00
2019-05-21T11:05:06.625Z,9.50
2019-05-21T11:07:36.628Z,10.90
2019-05-21T11:10:08.326Z,10.67
2019-05-21T11:12:39.518Z,8.87
2019-05-21T11:15:09.920Z,8.23
2019-05-21T11:17:53.301Z,8.20
2019-05-21T11:20:12.635Z,7.58
2019-05-21T11:22:42.722Z,7.72
2019-05-21T11:25:13.393Z,8.10
2019-05-21T11:27:43.459Z,9.05
2019-05-21T11:30:13.667Z,9.63
2019-05-21T11:32:43.808Z,9.47
2019-05-21T11:35:14.279Z,10.63
2019-05-21T11:37:47.688Z,10.87
2019-05-21T11:40:17.413Z,10.75
2019-05-21T11:42:47.517Z,12.07
2019-05-21T11:45:31.086Z,13.32
2019-05-21T11:47:54.276Z,13.58
2019-05-21T11:50:22.831Z,12.40
2019-05-21T11:52:52.917Z,13.13
2019-05-21T11:55:23.022Z,12.20
2019-05-21T11:57:53.064Z,15.05
2019-05-21T12:00:25.689Z,15.60
2019-05-21T12:02:55.850Z,15.23
2019-05-21T12:05:30.642Z,14.20
2019-05-21T12:08:01.730Z,15.05
2019-05-21T12:10:31.751Z,13.22
2019-05-21T12:13:01.810Z,13.65
2019-05-21T12:15:31.905Z,12.68
2019-05-21T12:18:03.000Z,13.25
2019-05-21T12:20:36.650Z,12.95
2019-05-21T12:23:07.264Z,13.38
2019-05-21T12:25:37.363Z,12.40
2019-05-21T12:28:10.981Z,13.72
2019-05-21T12:30:39.286Z,13.20
2019-05-21T12:33:09.342Z,11.88
2019-05-21T12:35:39.372Z,13.55
2019-05-21T12:38:09.390Z,12.85
2019-05-21T12:40:39.470Z,12.37
2019-05-21T12:43:09.567Z,12.85
2019-05-21T12:45:39.868Z,12.43
2019-05-21T12:48:09.903Z,10.90
2019-05-21T12:50:40.030Z,11.05
2019-05-21T12:53:10.107Z,11.70
2019-05-21T12:55:40.116Z,13.05
2019-05-21T12:58:10.212Z,11.85
2019-05-21T13:00:40.652Z,11.60
2019-05-21T13:03:10.691Z,12.18
2019-05-21T13:05:40.715Z,11.65
2019-05-21T13:08:10.741Z,13.30
2019-05-21T13:10:40.759Z,12.35
2019-05-21T13:13:10.959Z,15.85
2019-05-21T13:15:41.003Z,16.45
2019-05-21T13:18:12.636Z,16.97
2019-05-21T13:20:42.720Z,18.82
2019-05-21T13:23:12.941Z,16.90
2019-05-21T13:25:43.197Z,17.82
2019-05-21T13:28:13.273Z,20.20
2019-05-21T13:30:43.372Z,19.30
2019-05-21T13:33:13.383Z,19.70
2019-05-21T13:35:43.475Z,20.82
2019-05-21T13:38:13.905Z,21.07
2019-05-21T13:40:44.703Z,21.50
2019-05-21T13:43:14.859Z,20.12
2019-05-21T13:45:46.124Z,21.10
2019-05-21T13:48:16.170Z,22.10
2019-05-21T13:50:46.185Z,19.80
2019-05-21T13:53:16.395Z,19.87
2019-05-21T13:55:46.472Z,18.70
2019-05-21T13:58:16.569Z,21.50
2019-05-21T14:00:56.562Z,19.87
2019-05-21T14:03:26.834Z,20.77
2019-05-21T14:05:56.845Z,24.92
2019-05-21T14:08:27.196Z,23.47
2019-05-21T14:10:57.289Z,21.87
2019-05-21T14:13:27.394Z,21.52
2019-05-21T14:15:57.426Z,21.45
2019-05-21T14:18:27.552Z,23.70
2019-05-21T14:20:57.571Z,22.05
2019-05-21T14:23:27.603Z,22.95
2019-05-21T14:25:57.766Z,21.52
2019-05-21T14:28:27.973Z,19.67
2019-05-21T14:30:58.118Z,18.45
2019-05-21T14:33:29.344Z,16.90
2019-05-21T14:35:59.374Z,18.52
2019-05-21T14:38:29.406Z,17.87
2019-05-21T14:40:59.514Z,19.17
2019-05-21T14:43:29.594Z,19.17
2019-05-21T14:45:59.630Z,19.13
2019-05-21T14:48:29.673Z,19.33
2019-05-21T14:50:59.676Z,18.48
2019-05-21T14:53:29.771Z,19.27
2019-05-21T14:55:59.888Z,21.03
2019-05-21T14:58:29.903Z,21.20
2019-05-21T15:01:00.014Z,21.57
2019-05-21T15:03:30.064Z,25.23
2019-05-21T15:06:00.059Z,25.33
2019-05-21T15:08:30.183Z,22.47
2019-05-21T15:11:00.186Z,24.70
2019-05-21T15:13:30.289Z,21.87
2019-05-21T15:16:00.428Z,21.17
2019-05-21T15:18:30.481Z,21.70
2019-05-21T15:21:05.900Z,21.20
2019-05-21T15:23:36.119Z,19.97
2019-05-21T15:26:06.674Z,19.73
2019-05-21T15:28:39.532Z,20.93
2019-05-21T15:31:09.756Z,21.17
2019-05-21T15:33:39.794Z,20.47
2019-05-21T15:36:11.743Z,21.30
2019-05-21T15:38:50.230Z,19.97
2019-05-21T15:41:13.488Z,20.60
2019-05-21T15:43:43.506Z,19.33
2019-05-21T15:46:14.690Z,18.77
2019-05-21T15:48:44.698Z,18.87
2019-05-21T15:51:14.718Z,19.93
2019-05-21T15:53:44.725Z,19.23
2019-05-21T15:56:15.394Z,18.87
2019-05-21T15:58:45.541Z,20.10
2019-05-21T16:01:15.569Z,20.37
2019-05-21T16:03:45.592Z,20.77
2019-05-21T16:06:15.616Z,22.30
2019-05-21T16:08:47.290Z,22.57
2019-05-21T16:11:27.973Z,28.37
2019-05-21T16:13:49.112Z,27.17
2019-05-21T16:16:19.236Z,25.67
2019-05-21T16:18:49.268Z,24.13
2019-05-21T16:21:19.286Z,23.67
2019-05-21T16:23:49.308Z,22.43
2019-05-21T16:26:23.495Z,22.97
2019-05-21T16:28:53.647Z,22.30
2019-05-21T16:31:23.664Z,19.47
2019-05-21T16:33:53.841Z,19.33
2019-05-21T16:36:23.914Z,20.33
2019-05-21T16:38:54.064Z,18.13
2019-05-21T16:41:25.675Z,18.40
2019-05-21T16:43:57.546Z,17.77
2019-05-21T16:46:27.558Z,18.43
2019-05-21T16:48:57.591Z,19.33
2019-05-21T16:51:27.974Z,17.30
2019-05-21T16:53:59.233Z,18.63
2019-05-21T16:56:29.219Z,19.63
2019-05-21T16:58:59.256Z,18.53
2019-05-21T17:01:29.423Z,18.03
2019-05-21T17:04:00.370Z,17.60
2019-05-21T17:06:30.631Z,19.67
2019-05-21T17:09:00.724Z,17.10
2019-05-21T17:11:32.353Z,18.13
2019-05-21T17:14:02.387Z,18.17
2019-05-21T17:16:32.398Z,17.67
2019-05-21T17:19:02.641Z,17.30
2019-05-21T17:21:32.724Z,18.47
2019-05-21T17:24:02.770Z,18.27
2019-05-21T17:26:32.793Z,18.20
2019-05-21T17:29:06.592Z,18.10
2019-05-21T17:31:36.924Z,17.07
2019-05-21T17:34:08.676Z,18.90
2019-05-21T17:36:38.811Z,18.67
2019-05-21T17:39:08.971Z,19.03
2019-05-21T17:41:39.050Z,19.00
2019-05-21T17:44:09.955Z,18.73
2019-05-21T17:46:39.985Z,18.67
2019-05-21T17:49:10.026Z,20.83
2019-05-21T17:51:40.280Z,19.87
2019-05-21T17:54:10.457Z,20.70
2019-05-21T17:56:40.622Z,20.30
2019-05-21T17:59:12.731Z,20.90
2019-05-21T18:01:43.671Z,21.33
2019-05-21T18:04:14.233Z,23.77
2019-05-21T18:06:44.771Z,21.73
2019-05-21T18:09:17.682Z,21.10
2019-05-21T18:11:48.315Z,23.70
2019-05-21T18:14:20.046Z,26.77
2019-05-21T18:16:50.204Z,25.90
2019-05-21T18:19:21.001Z,33.70
2019-05-21T18:21:51.225Z,32.93
2019-05-21T18:24:21.416Z,30.90
2019-05-21T18:26:51.602Z,26.20
2019-05-21T18:29:24.381Z,27.90
2019-05-21T18:31:54.452Z,27.37
2019-05-21T18:34:24.635Z,23.30
2019-05-21T18:36:54.738Z,26.13
2019-05-21T18:39:25.534Z,28.97
2019-05-21T18:41:55.742Z,27.37
2019-05-21T18:44:28.668Z,29.53
2019-05-21T18:46:58.757Z,26.77
2019-05-21T18:49:28.856Z,27.60
2019-05-21T18:51:58.933Z,28.17
2019-05-21T18:54:28.968Z,31.10
2019-05-21T18:56:59.214Z,29.73
2019-05-21T18:59:29.413Z,24.57
2019-05-21T19:01:59.440Z,31.20
2019-05-21T19:04:31.980Z,28.03
2019-05-21T19:07:02.147Z,27.57
2019-05-21T19:09:32.418Z,30.83
2019-05-21T19:12:04.952Z,25.83
2019-05-21T19:14:35.228Z,24.03
2019-05-21T19:17:05.382Z,25.50
2019-05-21T19:19:35.587Z,25.47
2019-05-21T19:22:06.100Z,24.00
2019-05-21T19:24:37.714Z,26.13
2019-05-21T19:27:10.747Z,31.37
2019-05-21T19:29:41.680Z,25.17
2019-05-21T19:32:12.033Z,24.23
2019-05-21T19:34:42.142Z,28.30
2019-05-21T19:37:13.120Z,29.13
2019-05-21T19:39:43.237Z,28.43
2019-05-21T19:42:13.498Z,29.63
2019-05-21T19:44:43.520Z,29.27
2019-05-21T19:47:13.866Z,29.60
2019-05-21T19:49:43.873Z,29.10
2019-05-21T19:52:15.584Z,30.83
2019-05-21T19:54:48.365Z,27.30
2019-05-21T19:57:19.934Z,28.03
2019-05-21T19:59:50.309Z,29.97
2019-05-21T20:02:20.341Z,29.30
2019-05-21T20:04:51.057Z,27.60
2019-05-21T20:07:22.137Z,29.43
2019-05-21T20:09:52.551Z,28.30
2019-05-21T20:12:24.160Z,31.87
2019-05-21T20:14:54.536Z,28.37
2019-05-21T20:17:26.079Z,27.97
2019-05-21T20:19:59.673Z,29.33
2019-05-21T20:22:30.671Z,29.33
2019-05-21T20:25:01.283Z,27.37
2019-05-21T20:27:32.408Z,25.67
2019-05-21T20:30:12.103Z,28.80
2019-05-21T20:32:36.605Z,27.63
2019-05-21T20:35:08.938Z,31.27
2019-05-21T20:37:40.835Z,30.57
2019-05-21T20:40:12.976Z,26.67
2019-05-21T20:42:47.157Z,29.13
2019-05-21T20:45:21.688Z,27.63
2019-05-21T20:47:51.792Z,26.83
2019-05-21T20:50:23.176Z,29.53
2019-05-21T20:52:53.620Z,28.10
2019-05-21T20:55:25.595Z,29.63
2019-05-21T20:57:59.023Z,26.97
2019-05-21T21:00:30.494Z,24.77
2019-05-21T21:03:00.598Z,28.30
2019-05-21T21:05:30.953Z,24.30
2019-05-21T21:08:01.184Z,25.53
2019-05-21T21:10:31.285Z,24.33
2019-05-21T21:13:02.430Z,25.03
2019-05-21T21:15:33.237Z,25.20
2019-05-21T21:18:03.576Z,24.93
2019-05-21T21:20:34.538Z,28.57
2019-05-21T21:23:05.058Z,27.93
2019-05-21T21:25:35.161Z,30.13
2019-05-21T21:28:07.050Z,28.17
2019-05-21T21:30:37.494Z,26.13
2019-05-21T21:33:12.571Z,29.80
2019-05-21T21:35:43.511Z,27.23
2019-05-21T21:38:18.277Z,27.93
2019-05-21T21:40:48.564Z,31.80
2019-05-21T21:43:18.639Z,31.97
2019-05-21T21:45:49.346Z,31.20
2019-05-21T21:48:20.060Z,30.10
2019-05-21T21:50:51.088Z,33.43
2019-05-21T21:53:21.554Z,32.63
2019-05-21T21:55:54.837Z,32.60
2019-05-21T21:58:25.147Z,31.87
2019-05-21T22:01:11.942Z,34.97
2019-05-21T22:03:45.555Z,36.63
2019-05-21T22:06:17.357Z,32.67
2019-05-21T22:08:47.633Z,31.87
2019-05-21T22:11:19.557Z,32.27
2019-05-21T22:13:49.830Z,31.73
2019-05-21T22:16:20.193Z,31.20
2019-05-21T22:18:50.694Z,33.13
2019-05-21T22:21:21.019Z,30.20
2019-05-21T22:23:51.864Z,33.03
2019-05-21T22:26:22.208Z,35.47
2019-05-21T22:28:52.431Z,33.73
2019-05-21T22:31:22.521Z,31.00
2019-05-21T22:33:52.659Z,31.50
2019-05-21T22:36:23.239Z,33.47
2019-05-21T22:38:53.455Z,33.20
2019-05-21T22:41:23.564Z,30.90
2019-05-21T22:43:53.743Z,37.60
2019-05-21T22:46:23.913Z,30.97
2019-05-21T22:48:54.175Z,27.90
2019-05-21T22:51:24.287Z,33.43
2019-05-21T22:53:54.371Z,33.63
2019-05-21T22:56:24.379Z,31.00
2019-05-21T22:58:56.014Z,29.90
2019-05-21T23:01:27.826Z,34.47
2019-05-21T23:04:00.551Z,29.30
2019-05-21T23:06:32.330Z,29.27
2019-05-21T23:09:02.843Z,27.23
2019-05-21T23:11:33.081Z,32.23
2019-05-21T23:14:03.449Z,26.80
2019-05-21T23:16:35.070Z,30.20
2019-05-21T23:19:24.388Z,35.37
2019-05-21T23:21:59.202Z,32.53
2019-05-21T23:24:29.845Z,35.93
2019-05-21T23:27:00.383Z,31.70
2019-05-21T23:29:30.805Z,34.43
2019-05-21T23:32:01.079Z,34.03
2019-05-21T23:34:31.758Z,34.67
2019-05-21T23:37:02.554Z,32.60
2019-05-21T23:39:35.300Z,38.43
2019-05-21T23:42:07.816Z,36.27
2019-05-21T23:44:38.067Z,33.83
2019-05-21T23:47:09.732Z,35.83
2019-05-21T23:49:43.090Z,29.43
2019-05-21T23:52:15.782Z,34.13
2019-05-21T23:54:47.435Z,33.37
2019-05-21T23:57:22.613Z,37.37
2019-05-21T23:59:52.785Z,33.43
